createdAt,value
2023-03-13T00:00:14.320Z,63.72
2023-03-13T00:02:40.694Z,63.54
2023-03-13T00:05:07.100Z,63.83
2023-03-13T00:07:33.428Z,64.13
2023-03-13T00:09:59.788Z,63.86
2023-03-13T00:12:26.188Z,63.54
2023-03-13T00:14:52.510Z,63.47
2023-03-13T00:17:18.866Z,63.48
2023-03-13T00:19:45.192Z,63.58
2023-03-13T00:22:11.582Z,63.63
2023-03-13T00:24:37.960Z,63.84
2023-03-13T00:27:06.608Z,64.03
2023-03-13T00:29:32.923Z,64.06
2023-03-13T00:31:59.429Z,64.01
2023-03-13T00:34:25.723Z,63.84
2023-03-13T00:36:52.069Z,63.85
2023-03-13T00:39:18.423Z,63.80
2023-03-13T00:41:44.814Z,63.92
2023-03-13T00:44:11.125Z,64.15
2023-03-13T00:46:37.594Z,64.34
2023-03-13T00:49:03.824Z,64.57
2023-03-13T00:51:30.189Z,64.63
2023-03-13T00:53:58.276Z,64.71
2023-03-13T00:56:22.930Z,64.88
2023-03-13T00:58:49.369Z,64.98
2023-03-13T01:01:15.712Z,65.00
2023-03-13T01:03:42.117Z,65.20
2023-03-13T01:06:08.464Z,65.31
2023-03-13T01:08:34.851Z,65.25
2023-03-13T01:11:01.204Z,65.22
2023-03-13T01:13:27.772Z,65.28
2023-03-13T01:15:54.165Z,65.26
2023-03-13T01:18:20.467Z,65.13
2023-03-13T01:20:47.115Z,65.13
2023-03-13T01:23:13.496Z,65.57
2023-03-13T01:25:39.983Z,65.86
2023-03-13T01:28:06.289Z,66.17
2023-03-13T01:30:32.633Z,66.11
2023-03-13T01:32:59.034Z,66.38
2023-03-13T01:35:25.393Z,65.94
2023-03-13T01:37:51.668Z,66.21
2023-03-13T01:40:18.021Z,67.08
2023-03-13T01:42:44.412Z,67.50
2023-03-13T01:45:10.720Z,68.56
2023-03-13T01:47:37.060Z,69.69
2023-03-13T01:50:03.441Z,70.74
2023-03-13T01:52:30.522Z,71.47
2023-03-13T01:54:56.852Z,72.01
2023-03-13T01:57:23.182Z,72.50
2023-03-13T01:59:49.566Z,72.77
2023-03-13T02:02:15.883Z,73.28
2023-03-13T02:04:42.373Z,73.65
2023-03-13T02:07:08.738Z,74.04
2023-03-13T02:09:35.112Z,74.42
2023-03-13T02:12:01.432Z,74.50
2023-03-13T02:14:27.794Z,74.44
2023-03-13T02:16:54.129Z,74.69
2023-03-13T02:19:20.512Z,74.85
2023-03-13T02:21:46.841Z,74.93
2023-03-13T02:24:13.230Z,75.01
2023-03-13T02:26:39.545Z,75.32
2023-03-13T02:29:05.902Z,75.43
2023-03-13T02:31:32.303Z,75.44
2023-03-13T02:33:58.657Z,75.33
2023-03-13T02:36:25.009Z,75.51
2023-03-13T02:38:51.313Z,75.50
2023-03-13T02:41:17.673Z,75.68
2023-03-13T02:43:44.017Z,75.74
2023-03-13T02:46:10.354Z,75.75
2023-03-13T02:48:36.685Z,76.13
2023-03-13T02:51:03.052Z,76.62
2023-03-13T02:53:29.391Z,76.93
2023-03-13T02:55:57.949Z,77.06
2023-03-13T02:58:24.270Z,77.20
2023-03-13T03:00:50.683Z,77.13
2023-03-13T03:03:16.978Z,76.80
2023-03-13T03:05:43.265Z,76.19
2023-03-13T03:08:09.644Z,76.14
2023-03-13T03:10:36.082Z,76.21
2023-03-13T03:13:02.388Z,76.62
2023-03-13T03:15:28.773Z,77.01
2023-03-13T03:17:55.124Z,77.06
2023-03-13T03:20:21.487Z,76.99
2023-03-13T03:22:47.822Z,77.27
2023-03-13T03:25:14.141Z,77.30
2023-03-13T03:27:40.485Z,77.26
2023-03-13T03:30:06.826Z,76.94
2023-03-13T03:32:33.252Z,76.96
2023-03-13T03:34:59.555Z,76.96
2023-03-13T03:37:25.900Z,76.68
2023-03-13T03:39:52.230Z,76.42
2023-03-13T03:42:18.623Z,76.50
2023-03-13T03:44:44.971Z,76.62
2023-03-13T03:47:11.412Z,76.79
2023-03-13T03:49:37.714Z,76.51
2023-03-13T03:52:04.053Z,76.41
2023-03-13T03:54:30.425Z,77.06
2023-03-13T03:56:56.975Z,77.70
2023-03-13T03:59:23.357Z,77.86
2023-03-13T04:01:49.730Z,77.86
2023-03-13T04:04:16.041Z,77.60
2023-03-13T04:06:42.414Z,77.52
2023-03-13T04:09:08.779Z,77.83
2023-03-13T04:11:35.126Z,78.52
2023-03-13T04:14:01.493Z,79.23
2023-03-13T04:16:27.896Z,79.84
2023-03-13T04:18:54.177Z,80.25
2023-03-13T04:21:20.533Z,80.60
2023-03-13T04:23:46.842Z,80.97
2023-03-13T04:26:13.228Z,81.28
2023-03-13T04:28:39.546Z,81.35
2023-03-13T04:31:05.958Z,80.98
2023-03-13T04:33:32.275Z,80.62
2023-03-13T04:35:58.683Z,80.21
2023-03-13T04:38:24.983Z,80.02
2023-03-13T04:40:51.353Z,80.03
2023-03-13T04:43:17.815Z,79.64
2023-03-13T04:45:44.187Z,79.52
2023-03-13T04:48:10.525Z,79.40
2023-03-13T04:50:36.914Z,79.22
2023-03-13T04:53:03.226Z,79.37
2023-03-13T04:55:29.680Z,79.60
2023-03-13T04:57:56.035Z,79.09
2023-03-13T05:00:22.354Z,78.10
2023-03-13T05:02:48.782Z,77.56
2023-03-13T05:05:15.250Z,77.25
2023-03-13T05:07:41.539Z,76.93
2023-03-13T05:10:07.918Z,75.62
2023-03-13T05:12:34.263Z,74.42
2023-03-13T05:15:00.649Z,74.32
2023-03-13T05:17:27.056Z,73.74
2023-03-13T05:19:53.390Z,72.91
2023-03-13T05:22:19.746Z,72.32
2023-03-13T05:24:46.110Z,71.41
2023-03-13T05:27:12.474Z,71.12
2023-03-13T05:29:38.864Z,70.57
2023-03-13T05:32:05.260Z,69.96
2023-03-13T05:34:31.646Z,69.77
2023-03-13T05:36:57.979Z,69.33
2023-03-13T05:39:24.365Z,68.80
2023-03-13T05:41:50.720Z,68.10
2023-03-13T05:44:17.099Z,67.95
2023-03-13T05:46:43.477Z,68.02
2023-03-13T05:49:09.766Z,68.52
2023-03-13T05:51:36.308Z,67.65
2023-03-13T05:54:02.684Z,66.86
2023-03-13T05:56:29.037Z,66.11
2023-03-13T05:58:55.393Z,66.22
2023-03-13T06:01:21.726Z,65.87
2023-03-13T06:03:48.195Z,66.02
2023-03-13T06:06:14.494Z,65.70
2023-03-13T06:08:40.816Z,65.08
2023-03-13T06:11:07.152Z,64.49
2023-03-13T06:13:33.685Z,63.25
2023-03-13T06:16:00.208Z,62.31
2023-03-13T06:18:26.518Z,61.72
2023-03-13T06:20:52.903Z,60.38
2023-03-13T06:23:19.271Z,61.03
2023-03-13T06:25:45.656Z,59.71
2023-03-13T06:28:11.977Z,59.62
2023-03-13T06:30:38.379Z,59.26
2023-03-13T06:33:04.859Z,59.50
2023-03-13T06:35:31.187Z,59.27
2023-03-13T06:37:57.462Z,58.92
2023-03-13T06:40:23.851Z,59.60
2023-03-13T06:42:50.177Z,57.51
2023-03-13T06:45:16.599Z,56.81
2023-03-13T06:47:45.325Z,54.88
2023-03-13T06:50:11.670Z,55.66
2023-03-13T06:52:43.918Z,55.52
2023-03-13T06:55:04.393Z,53.86
2023-03-13T06:57:30.718Z,54.16
2023-03-13T06:59:57.061Z,53.40
2023-03-13T07:02:23.416Z,52.25
2023-03-13T07:04:49.757Z,52.07
2023-03-13T07:07:26.035Z,51.95
2023-03-13T07:09:42.436Z,50.87
2023-03-13T07:12:08.801Z,51.32
2023-03-13T07:14:35.148Z,51.74
2023-03-13T07:17:01.781Z,51.45
2023-03-13T07:19:31.253Z,51.41
2023-03-13T07:21:57.578Z,49.89
2023-03-13T07:24:23.957Z,50.78
2023-03-13T07:27:04.632Z,49.21
2023-03-13T07:29:16.651Z,51.54
2023-03-13T07:31:43.538Z,52.93
2023-03-13T07:34:09.801Z,51.26
2023-03-13T07:36:36.155Z,50.10
2023-03-13T07:39:02.483Z,50.53
2023-03-13T07:41:28.881Z,49.00
2023-03-13T07:43:55.224Z,48.42
2023-03-13T07:46:21.771Z,48.51
2023-03-13T07:48:48.022Z,48.88
2023-03-13T07:51:14.734Z,48.58
2023-03-13T07:53:40.949Z,49.12
2023-03-13T07:56:07.685Z,48.27
2023-03-13T07:58:33.562Z,48.03
2023-03-13T08:01:02.537Z,46.40
2023-03-13T08:03:28.971Z,46.16
2023-03-13T08:05:55.284Z,47.45
2023-03-13T08:08:21.746Z,46.77
2023-03-13T08:10:50.527Z,46.99
2023-03-13T08:13:16.862Z,45.63
2023-03-13T08:15:43.341Z,46.65
2023-03-13T08:18:09.732Z,48.16
2023-03-13T08:20:36.053Z,47.78
2023-03-13T08:23:02.409Z,45.43
2023-03-13T08:25:28.754Z,44.14
2023-03-13T08:27:57.284Z,44.23
2023-03-13T08:30:23.676Z,43.12
2023-03-13T08:32:50.156Z,43.26
2023-03-13T08:35:16.466Z,42.02
2023-03-13T08:37:42.847Z,41.92
2023-03-13T08:40:09.150Z,42.14
2023-03-13T08:42:35.815Z,43.75
2023-03-13T08:45:03.256Z,43.03
2023-03-13T08:47:29.607Z,42.94
2023-03-13T08:49:56.025Z,43.53
2023-03-13T08:52:24.794Z,42.96
2023-03-13T08:54:52.415Z,42.65
2023-03-13T08:57:18.782Z,42.32
2023-03-13T08:59:45.171Z,41.41
2023-03-13T09:02:11.600Z,41.10
2023-03-13T09:04:37.905Z,41.37
2023-03-13T09:07:04.292Z,40.08
2023-03-13T09:09:30.753Z,40.07
2023-03-13T09:11:57.133Z,40.17
2023-03-13T09:14:23.458Z,38.91
2023-03-13T09:16:49.846Z,39.50
2023-03-13T09:19:16.192Z,38.56
2023-03-13T09:21:42.571Z,39.46
2023-03-13T09:24:09.253Z,39.26
2023-03-13T09:26:35.566Z,39.00
2023-03-13T09:29:04.112Z,38.63
2023-03-13T09:31:30.672Z,37.35
2023-03-13T09:33:56.893Z,38.50
2023-03-13T09:36:23.366Z,39.02
2023-03-13T09:38:49.605Z,38.68
2023-03-13T09:41:15.995Z,39.42
2023-03-13T09:43:42.316Z,38.59
2023-03-13T09:46:08.717Z,37.02
2023-03-13T09:48:35.209Z,37.87
2023-03-13T09:51:01.506Z,37.47
2023-03-13T09:53:27.836Z,37.83
2023-03-13T09:55:54.227Z,37.40
2023-03-13T09:58:20.561Z,36.67
2023-03-13T10:00:46.924Z,36.32
2023-03-13T10:03:13.555Z,36.09
2023-03-13T10:05:39.951Z,37.03
2023-03-13T10:08:06.269Z,37.63
2023-03-13T10:10:32.639Z,36.98
2023-03-13T10:12:59.005Z,36.53
2023-03-13T10:15:25.352Z,35.23
2023-03-13T10:17:51.694Z,36.18
2023-03-13T10:20:18.507Z,36.19
2023-03-13T10:22:44.744Z,36.50
2023-03-13T10:25:11.131Z,36.37
2023-03-13T10:27:37.454Z,36.97
2023-03-13T10:30:03.824Z,36.79
2023-03-13T10:32:30.267Z,36.01
2023-03-13T10:34:56.621Z,36.21
2023-03-13T10:37:23.000Z,35.26
2023-03-13T10:39:49.454Z,34.66
2023-03-13T10:42:15.769Z,35.43
2023-03-13T10:44:42.177Z,35.28
2023-03-13T10:47:08.529Z,34.45
2023-03-13T10:49:34.886Z,35.11
2023-03-13T10:52:01.203Z,35.28
2023-03-13T10:54:27.643Z,34.95
2023-03-13T10:56:53.991Z,36.19
2023-03-13T10:59:20.358Z,36.17
2023-03-13T11:01:46.724Z,36.01
2023-03-13T11:04:13.060Z,35.08
2023-03-13T11:06:39.404Z,35.21
2023-03-13T11:09:05.848Z,34.52
2023-03-13T11:11:32.211Z,34.43
2023-03-13T11:13:58.584Z,33.85
2023-03-13T11:16:25.153Z,33.85
2023-03-13T11:18:51.377Z,32.89
2023-03-13T11:21:18.655Z,32.94
2023-03-13T11:23:44.141Z,33.01
2023-03-13T11:26:10.464Z,33.73
2023-03-13T11:28:36.862Z,34.05
2023-03-13T11:31:03.264Z,34.74
2023-03-13T11:33:29.949Z,33.44
2023-03-13T11:35:56.615Z,33.84
2023-03-13T11:38:22.996Z,34.11
2023-03-13T11:40:49.419Z,34.20
2023-03-13T11:43:25.154Z,33.56
2023-03-13T11:45:42.179Z,34.14
2023-03-13T11:48:08.476Z,34.32
2023-03-13T11:50:34.848Z,33.80
2023-03-13T11:53:01.245Z,33.24
2023-03-13T11:55:27.561Z,33.70
2023-03-13T11:57:54.006Z,33.83
2023-03-13T12:00:20.381Z,33.19
2023-03-13T12:02:46.781Z,32.59
2023-03-13T12:05:13.125Z,33.17
2023-03-13T12:07:39.450Z,33.47
2023-03-13T12:10:05.778Z,32.86
2023-03-13T12:12:32.122Z,33.70
2023-03-13T12:14:58.516Z,34.00
2023-03-13T12:17:24.944Z,34.04
2023-03-13T12:19:51.254Z,33.72
2023-03-13T12:22:17.656Z,33.13
2023-03-13T12:24:44.308Z,33.18
2023-03-13T12:27:11.783Z,32.58
2023-03-13T12:29:38.116Z,33.34
2023-03-13T12:32:04.500Z,33.55
2023-03-13T12:34:31.169Z,33.41
2023-03-13T12:36:57.601Z,32.89
2023-03-13T12:39:23.932Z,32.92
2023-03-13T12:41:50.316Z,32.34
2023-03-13T12:44:16.672Z,32.79
2023-03-13T12:46:43.189Z,32.52
2023-03-13T12:49:09.722Z,32.07
2023-03-13T12:51:36.056Z,31.37
2023-03-13T12:54:02.449Z,31.99
2023-03-13T12:56:28.808Z,32.94
2023-03-13T12:58:55.165Z,32.23
2023-03-13T13:01:21.594Z,32.61
2023-03-13T13:03:47.895Z,31.96
2023-03-13T13:06:14.656Z,32.28
2023-03-13T13:08:40.994Z,32.40
2023-03-13T13:11:07.337Z,32.77
2023-03-13T13:13:33.718Z,32.59
2023-03-13T13:16:02.576Z,33.00
2023-03-13T13:18:28.860Z,34.07
2023-03-13T13:20:55.231Z,34.35
2023-03-13T13:23:21.680Z,34.94
2023-03-13T13:25:48.030Z,34.81
2023-03-13T13:28:14.413Z,35.48
2023-03-13T13:30:40.824Z,35.24
2023-03-13T13:33:09.091Z,35.20
2023-03-13T13:35:33.658Z,35.72
2023-03-13T13:38:00.041Z,35.88
2023-03-13T13:40:26.910Z,36.11
2023-03-13T13:42:53.313Z,35.59
2023-03-13T13:45:19.666Z,36.37
2023-03-13T13:47:46.130Z,36.76
2023-03-13T13:50:12.550Z,36.90
2023-03-13T13:52:38.885Z,37.32
2023-03-13T13:55:05.409Z,37.25
2023-03-13T13:57:31.795Z,36.58
2023-03-13T13:59:58.173Z,37.03
2023-03-13T14:02:24.550Z,37.24
2023-03-13T14:04:50.944Z,37.18
2023-03-13T14:07:17.272Z,37.02
2023-03-13T14:09:43.620Z,36.93
2023-03-13T14:12:10.089Z,37.08
2023-03-13T14:14:36.522Z,37.21
2023-03-13T14:17:02.905Z,36.95
2023-03-13T14:19:29.288Z,37.11
2023-03-13T14:21:55.648Z,37.34
2023-03-13T14:24:21.992Z,37.84
2023-03-13T14:26:48.326Z,37.31
2023-03-13T14:29:14.679Z,37.20
2023-03-13T14:31:41.256Z,37.25
2023-03-13T14:34:07.575Z,37.35
2023-03-13T14:36:33.969Z,37.18
2023-03-13T14:39:00.329Z,37.28
2023-03-13T14:41:26.670Z,37.29
2023-03-13T14:43:53.077Z,37.60
2023-03-13T14:46:19.521Z,37.21
2023-03-13T14:48:45.829Z,37.06
2023-03-13T14:51:16.042Z,37.41
2023-03-13T14:53:38.558Z,37.26
2023-03-13T14:56:04.924Z,37.21
2023-03-13T14:58:31.300Z,37.37
2023-03-13T15:00:57.673Z,37.40
2023-03-13T15:03:23.985Z,37.31
2023-03-13T15:05:50.350Z,37.56
2023-03-13T15:08:16.739Z,37.34
2023-03-13T15:10:43.086Z,37.38
2023-03-13T15:13:09.468Z,37.42
2023-03-13T15:15:35.805Z,37.88
2023-03-13T15:18:02.209Z,37.61
2023-03-13T15:20:28.540Z,37.69
2023-03-13T15:22:54.892Z,37.57
2023-03-13T15:25:21.274Z,37.70
2023-03-13T15:27:47.659Z,37.69
2023-03-13T15:30:14.034Z,37.90
2023-03-13T15:32:40.499Z,38.04
2023-03-13T15:35:06.722Z,37.54
2023-03-13T15:37:33.116Z,37.95
2023-03-13T15:39:59.555Z,37.85
2023-03-13T15:42:26.016Z,37.85
2023-03-13T15:44:52.392Z,37.71
2023-03-13T15:47:18.747Z,37.86
2023-03-13T15:49:45.217Z,37.96
2023-03-13T15:52:11.562Z,37.80
2023-03-13T15:54:37.924Z,37.51
2023-03-13T15:57:04.246Z,37.57
2023-03-13T15:59:30.570Z,37.57
2023-03-13T16:01:56.938Z,37.98
2023-03-13T16:04:23.371Z,38.02
2023-03-13T16:06:49.797Z,37.93
2023-03-13T16:09:16.161Z,38.18
2023-03-13T16:11:42.539Z,38.58
2023-03-13T16:14:08.829Z,38.71
2023-03-13T16:16:37.595Z,38.65
2023-03-13T16:19:01.504Z,39.03
2023-03-13T16:21:27.850Z,39.06
2023-03-13T16:23:54.192Z,39.02
2023-03-13T16:26:20.586Z,38.87
2023-03-13T16:28:46.918Z,38.62
2023-03-13T16:31:13.417Z,39.01
2023-03-13T16:33:39.793Z,39.27
2023-03-13T16:36:06.194Z,39.67
2023-03-13T16:38:32.607Z,39.97
2023-03-13T16:40:58.937Z,40.46
2023-03-13T16:43:27.797Z,40.75
2023-03-13T16:45:54.556Z,40.93
2023-03-13T16:48:21.008Z,41.24
2023-03-13T16:50:47.379Z,41.68
2023-03-13T16:53:13.793Z,41.67
2023-03-13T16:55:40.199Z,41.97
2023-03-13T16:58:06.546Z,42.24
2023-03-13T17:00:33.069Z,42.28
2023-03-13T17:02:59.414Z,42.52
2023-03-13T17:05:25.720Z,42.33
2023-03-13T17:07:52.101Z,42.35
2023-03-13T17:10:18.483Z,42.65
2023-03-13T17:12:44.848Z,42.55
2023-03-13T17:15:11.240Z,43.06
2023-03-13T17:17:37.728Z,43.01
2023-03-13T17:20:04.100Z,42.95
2023-03-13T17:22:32.654Z,43.19
2023-03-13T17:24:59.022Z,43.61
2023-03-13T17:27:25.378Z,44.12
2023-03-13T17:29:51.758Z,44.62
2023-03-13T17:32:18.141Z,45.03
2023-03-13T17:34:46.690Z,45.62
2023-03-13T17:37:13.077Z,46.07
2023-03-13T17:39:39.481Z,46.61
2023-03-13T17:42:07.069Z,47.04
2023-03-13T17:44:33.568Z,47.24
2023-03-13T17:46:59.970Z,47.41
2023-03-13T17:49:26.301Z,47.25
2023-03-13T17:51:52.716Z,48.36
2023-03-13T17:54:19.084Z,49.00
2023-03-13T17:56:45.442Z,49.31
2023-03-13T17:59:11.865Z,49.87
2023-03-13T18:01:38.286Z,50.08
2023-03-13T18:04:04.817Z,50.34
2023-03-13T18:06:31.300Z,50.79
2023-03-13T18:08:57.614Z,51.22
2023-03-13T18:11:24.027Z,51.88
2023-03-13T18:13:50.363Z,52.65
2023-03-13T18:16:16.793Z,53.21
2023-03-13T18:18:43.113Z,53.64
2023-03-13T18:21:09.534Z,54.42
2023-03-13T18:23:39.040Z,54.51
2023-03-13T18:26:05.393Z,54.79
2023-03-13T18:28:31.764Z,54.87
2023-03-13T18:30:58.158Z,55.21
2023-03-13T18:33:24.592Z,54.94
2023-03-13T18:35:51.007Z,55.60
2023-03-13T18:38:17.296Z,56.58
2023-03-13T18:40:43.647Z,57.12
2023-03-13T18:43:10.010Z,56.93
2023-03-13T18:45:36.408Z,56.99
2023-03-13T18:48:02.681Z,56.75
2023-03-13T18:50:29.038Z,57.12
2023-03-13T18:52:55.500Z,57.25
2023-03-13T18:55:21.742Z,57.06
2023-03-13T18:57:48.230Z,56.97
2023-03-13T19:00:14.525Z,57.26
2023-03-13T19:02:42.217Z,57.54
2023-03-13T19:05:08.671Z,57.59
2023-03-13T19:07:35.021Z,57.71
2023-03-13T19:10:01.366Z,57.77
2023-03-13T19:12:27.716Z,58.07
2023-03-13T19:14:54.138Z,58.40
2023-03-13T19:17:22.712Z,58.39
2023-03-13T19:19:49.023Z,58.53
2023-03-13T19:22:15.384Z,58.36
2023-03-13T19:24:41.770Z,58.55
2023-03-13T19:27:08.125Z,56.84
2023-03-13T19:29:34.488Z,55.66
2023-03-13T19:32:01.192Z,54.49
2023-03-13T19:34:28.594Z,54.45
2023-03-13T19:36:55.265Z,53.88
2023-03-13T19:39:23.817Z,54.25
2023-03-13T19:41:50.138Z,53.44
2023-03-13T19:44:18.729Z,51.94
2023-03-13T19:46:45.094Z,52.54
2023-03-13T19:49:11.492Z,51.91
2023-03-13T19:51:39.315Z,51.43
2023-03-13T19:54:05.720Z,51.63
2023-03-13T19:56:32.133Z,51.88
2023-03-13T19:58:58.852Z,51.95
2023-03-13T20:01:25.294Z,51.78
2023-03-13T20:03:52.063Z,51.88
2023-03-13T20:06:18.405Z,51.82
2023-03-13T20:08:44.876Z,51.83
2023-03-13T20:11:11.284Z,51.96
2023-03-13T20:13:37.714Z,52.13
2023-03-13T20:16:04.156Z,53.29
2023-03-13T20:18:30.578Z,53.78
2023-03-13T20:20:57.153Z,53.61
2023-03-13T20:23:23.539Z,52.43
2023-03-13T20:25:49.909Z,53.42
2023-03-13T20:28:16.268Z,52.88
2023-03-13T20:30:42.756Z,53.24
2023-03-13T20:33:09.151Z,53.02
2023-03-13T20:35:35.510Z,52.23
2023-03-13T20:38:01.933Z,52.95
2023-03-13T20:40:29.434Z,52.57
2023-03-13T20:42:58.383Z,52.71
2023-03-13T20:45:23.260Z,52.60
2023-03-13T20:47:49.627Z,52.71
2023-03-13T20:50:17.471Z,52.66
2023-03-13T20:52:42.336Z,52.96
2023-03-13T20:55:08.743Z,52.80
2023-03-13T20:57:35.146Z,53.04
2023-03-13T21:00:01.474Z,53.22
2023-03-13T21:02:29.971Z,53.64
2023-03-13T21:04:56.409Z,53.81
2023-03-13T21:07:22.703Z,53.96
2023-03-13T21:09:49.028Z,54.15
2023-03-13T21:12:15.417Z,54.26
2023-03-13T21:14:44.231Z,54.43
2023-03-13T21:17:10.800Z,54.47
2023-03-13T21:19:38.342Z,54.61
2023-03-13T21:22:06.862Z,54.56
2023-03-13T21:24:34.197Z,54.74
2023-03-13T21:27:00.588Z,54.85
2023-03-13T21:29:26.913Z,55.22
2023-03-13T21:31:53.294Z,55.50
2023-03-13T21:34:19.583Z,55.68
2023-03-13T21:36:45.972Z,55.75
2023-03-13T21:39:13.365Z,55.95
2023-03-13T21:41:39.738Z,56.00
2023-03-13T21:44:06.062Z,56.11
2023-03-13T21:46:32.450Z,55.89
2023-03-13T21:48:58.725Z,55.87
2023-03-13T21:51:25.129Z,55.99
2023-03-13T21:53:51.439Z,55.95
2023-03-13T21:56:18.882Z,55.86
2023-03-13T21:58:45.203Z,55.92
2023-03-13T22:01:11.669Z,56.03
2023-03-13T22:03:37.957Z,57.21
2023-03-13T22:06:04.276Z,57.52
2023-03-13T22:08:30.634Z,55.98
2023-03-13T22:10:56.973Z,56.72
2023-03-13T22:13:23.349Z,57.13
2023-03-13T22:15:49.683Z,55.95
2023-03-13T22:18:16.056Z,56.31
2023-03-13T22:20:42.440Z,55.88
2023-03-13T22:23:08.734Z,55.76
2023-03-13T22:25:35.129Z,56.12
2023-03-13T22:28:01.492Z,55.99
2023-03-13T22:30:27.899Z,55.69
2023-03-13T22:32:54.344Z,55.05
2023-03-13T22:35:20.653Z,55.06
2023-03-13T22:37:46.969Z,55.60
2023-03-13T22:40:13.354Z,54.59
2023-03-13T22:42:39.684Z,54.93
2023-03-13T22:45:06.038Z,55.40
2023-03-13T22:47:32.446Z,54.73
2023-03-13T22:49:58.796Z,54.74
2023-03-13T22:52:25.134Z,54.41
2023-03-13T22:54:51.493Z,54.40
2023-03-13T22:57:17.813Z,53.94
2023-03-13T22:59:44.164Z,53.18
2023-03-13T23:02:10.487Z,53.30
2023-03-13T23:04:38.046Z,53.34
2023-03-13T23:07:04.362Z,53.39
2023-03-13T23:09:30.748Z,53.37
2023-03-13T23:11:57.101Z,53.34
2023-03-13T23:14:23.483Z,53.37
2023-03-13T23:16:49.802Z,53.25
2023-03-13T23:19:16.576Z,53.45
2023-03-13T23:21:42.941Z,53.60
2023-03-13T23:24:09.332Z,53.81
2023-03-13T23:26:35.685Z,53.68
2023-03-13T23:29:02.086Z,53.30
2023-03-13T23:31:28.780Z,53.56
2023-03-13T23:33:55.171Z,53.69
2023-03-13T23:36:21.509Z,53.73
2023-03-13T23:38:47.839Z,53.65
2023-03-13T23:41:14.216Z,53.66
2023-03-13T23:43:40.519Z,53.58
2023-03-13T23:46:06.865Z,53.61
2023-03-13T23:48:33.243Z,53.51
2023-03-13T23:50:59.610Z,53.87
2023-03-13T23:53:25.965Z,54.08
2023-03-13T23:55:52.294Z,54.41
2023-03-13T23:58:18.649Z,54.82
